Time;durP1;ratioP1;P1;durP2;ratioP2;P2;SDS_P1;SDS_P2;PMS_P1;PMS_P2;Temp;Humidity;BMP_temperature;BMP_pressure;BME280_temperature;BME280_humidity;BME280_pressure;Samples;Min_cycle;Max_cycle;Signal;HPM_P1;HPM_P2
2023/09/29 00:01:29;;;;;;;4.17;2.23;;;;;;;;;;5104418;28;20210;-72
2023/09/29 00:03:56;;;;;;;6.77;2.50;;;;;;;;;;5091235;28;20292;-72
2023/09/29 00:06:23;;;;;;;7.20;2.90;;;;;;;;;;5090672;28;20282;-70
2023/09/29 00:08:50;;;;;;;6.10;2.67;;;;;;;;;;5091282;28;20205;-69
2023/09/29 00:11:17;;;;;;;7.37;2.37;;;;;;;;;;5090690;28;20208;-70
2023/09/29 00:13:44;;;;;;;8.67;2.40;;;;;;;;;;5090923;28;20292;-70
2023/09/29 00:16:12;;;;;;;6.83;2.63;;;;;;;;;;5091082;28;20655;-70
2023/09/29 00:18:39;;;;;;;7.03;2.40;;;;;;;;;;5091162;28;20228;-69
2023/09/29 00:21:06;;;;;;;5.57;3.37;;;;;;;;;;5090641;28;20216;-69
2023/09/29 00:23:33;;;;;;;4.00;2.17;;;;;;;;;;5090944;28;20200;-70
2023/09/29 00:25:59;;;;;;;6.93;2.33;;;;;;;;;;5104805;28;20204;-69
2023/09/29 00:28:27;;;;;;;14.83;3.97;;;;;;;;;;5100989;28;20207;-70
2023/09/29 00:30:54;;;;;;;6.27;2.93;;;;;;;;;;5093380;28;20681;-71
2023/09/29 00:33:22;;;;;;;4.57;2.87;;;;;;;;;;5090981;28;20211;-70
2023/09/29 00:35:48;;;;;;;6.47;2.50;;;;;;;;;;5094981;28;20743;-70
2023/09/29 00:38:15;;;;;;;9.20;2.60;;;;;;;;;;5100086;28;20212;-70
2023/09/29 00:40:42;;;;;;;7.17;2.60;;;;;;;;;;5104269;28;20220;-69
2023/09/29 00:43:09;;;;;;;6.03;2.37;;;;;;;;;;5102381;28;20200;-69
2023/09/29 00:45:36;;;;;;;9.33;2.47;;;;;;;;;;5092163;28;20212;-69
2023/09/29 00:48:07;;;;;;;15.10;2.97;;;;;;;;;;5102145;28;20210;-69
2023/09/29 00:50:35;;;;;;;5.83;2.40;;;;;;;;;;5097221;28;20641;-69
2023/09/29 00:53:06;;;;;;;11.20;3.00;;;;;;;;;;5110454;28;20234;-69
2023/09/29 00:55:34;;;;;;;5.07;2.90;;;;;;;;;;5097396;28;20199;-70
2023/09/29 00:58:01;;;;;;;9.77;2.60;;;;;;;;;;5110649;28;20202;-69
2023/09/29 01:00:32;;;;;;;8.10;2.70;;;;;;;;;;5104114;28;20308;-70
2023/09/29 01:03:00;;;;;;;7.83;3.33;;;;;;;;;;5107341;28;20204;-69
2023/09/29 01:05:29;;;;;;;19.10;3.00;;;;;;;;;;5094682;28;20210;-69
2023/09/29 01:07:58;;;;;;;12.67;3.00;;;;;;;;;;5095731;28;20210;-69
2023/09/29 01:10:25;;;;;;;5.97;2.30;;;;;;;;;;5106892;28;20200;-70
2023/09/29 01:12:53;;;;;;;10.37;3.10;;;;;;;;;;5096146;28;20234;-70
2023/09/29 01:15:20;;;;;;;5.67;2.27;;;;;;;;;;5105770;28;20689;-70
2023/09/29 01:17:47;;;;;;;13.70;2.77;;;;;;;;;;5107946;28;20632;-69
2023/09/29 01:20:24;;;;;;;7.83;2.20;;;;;;;;;;5094165;28;20673;-69
2023/09/29 01:22:52;;;;;;;4.83;3.27;;;;;;;;;;5107484;28;20211;-69
2023/09/29 01:25:20;;;;;;;10.00;3.43;;;;;;;;;;5094069;28;20211;-69
2023/09/29 01:27:48;;;;;;;6.77;2.63;;;;;;;;;;5107729;28;20196;-69
2023/09/29 01:30:15;;;;;;;2.87;2.40;;;;;;;;;;5094345;28;20231;-69
2023/09/29 01:32:43;;;;;;;11.57;2.60;;;;;;;;;;5094118;28;20514;-69
2023/09/29 01:35:11;;;;;;;13.83;2.83;;;;;;;;;;5094217;28;20210;-70
2023/09/29 01:37:39;;;;;;;11.43;2.83;;;;;;;;;;5106900;28;20216;-69
2023/09/29 01:40:08;;;;;;;5.13;2.20;;;;;;;;;;5107009;28;20314;-69
2023/09/29 01:42:36;;;;;;;6.27;2.90;;;;;;;;;;5094157;28;20200;-69
2023/09/29 01:45:03;;;;;;;9.90;3.00;;;;;;;;;;5093991;28;20204;-70
2023/09/29 01:47:30;;;;;;;5.37;2.50;;;;;;;;;;5093648;28;20219;-70
2023/09/29 01:49:57;;;;;;;9.87;2.63;;;;;;;;;;5094417;28;20295;-69
2023/09/29 01:52:24;;;;;;;6.23;2.23;;;;;;;;;;5106525;28;20200;-70
2023/09/29 01:54:51;;;;;;;5.13;2.10;;;;;;;;;;5107813;28;20196;-70
2023/09/29 01:57:17;;;;;;;5.70;2.40;;;;;;;;;;5101129;28;20253;-69
2023/09/29 01:59:45;;;;;;;8.13;2.57;;;;;;;;;;5099092;28;20698;-69
2023/09/29 02:02:12;;;;;;;6.47;2.30;;;;;;;;;;5093453;28;20249;-69
2023/09/29 02:04:39;;;;;;;12.60;3.17;;;;;;;;;;5094267;28;20677;-69
2023/09/29 02:07:06;;;;;;;3.97;2.40;;;;;;;;;;5104939;28;20708;-69
2023/09/29 02:09:33;;;;;;;11.03;2.80;;;;;;;;;;5093588;28;20291;-69
2023/09/29 02:12:01;;;;;;;7.53;2.67;;;;;;;;;;5101860;28;20239;-70
2023/09/29 02:14:28;;;;;;;5.57;2.33;;;;;;;;;;5096348;28;20683;-70
2023/09/29 02:16:56;;;;;;;7.00;2.83;;;;;;;;;;5102235;28;20200;-70
2023/09/29 02:19:23;;;;;;;7.47;1.90;;;;;;;;;;5097240;28;20705;-70
2023/09/29 02:21:50;;;;;;;8.37;2.70;;;;;;;;;;5092808;28;20589;-69
2023/09/29 02:24:16;;;;;;;5.37;2.60;;;;;;;;;;5092990;28;20697;-69
2023/09/29 02:26:44;;;;;;;5.80;2.70;;;;;;;;;;5101486;28;20203;-69
2023/09/29 02:29:11;;;;;;;6.50;2.10;;;;;;;;;;5096776;28;20713;-69
2023/09/29 02:31:38;;;;;;;7.33;3.20;;;;;;;;;;5102369;28;20286;-70
2023/09/29 02:34:07;;;;;;;3.27;2.00;;;;;;;;;;5096012;28;20690;-69
2023/09/29 02:36:34;;;;;;;4.83;2.30;;;;;;;;;;5104315;28;20199;-69
2023/09/29 02:39:03;;;;;;;6.73;2.10;;;;;;;;;;5112628;28;20191;-69
2023/09/29 02:41:30;;;;;;;22.37;2.70;;;;;;;;;;5112590;28;20210;-69
2023/09/29 02:43:57;;;;;;;5.50;2.40;;;;;;;;;;5113312;28;20223;-69
2023/09/29 02:46:24;;;;;;;7.30;3.30;;;;;;;;;;5111672;28;20576;-69
2023/09/29 02:48:51;;;;;;;9.70;3.17;;;;;;;;;;5112534;28;20591;-69
2023/09/29 02:51:20;;;;;;;6.23;2.43;;;;;;;;;;5111640;28;20200;-70
2023/09/29 02:53:49;;;;;;;9.57;2.00;;;;;;;;;;5111966;28;20255;-69
2023/09/29 02:56:16;;;;;;;4.27;2.00;;;;;;;;;;5112050;28;20653;-69
2023/09/29 02:58:44;;;;;;;8.63;3.23;;;;;;;;;;5104103;28;20204;-69
2023/09/29 03:01:12;;;;;;;10.60;3.40;;;;;;;;;;5105560;28;20645;-69
2023/09/29 03:03:43;;;;;;;6.03;2.40;;;;;;;;;;5102289;28;20207;-69
2023/09/29 03:06:11;;;;;;;4.57;1.97;;;;;;;;;;5099448;28;20207;-69
2023/09/29 03:08:39;;;;;;;7.23;2.53;;;;;;;;;;5102805;28;20204;-69
2023/09/29 03:11:09;;;;;;;9.70;3.20;;;;;;;;;;5107384;28;20211;-69
2023/09/29 03:13:37;;;;;;;5.67;2.50;;;;;;;;;;5104915;28;20238;-69
2023/09/29 03:16:06;;;;;;;3.50;1.70;;;;;;;;;;5105685;28;20210;-69
2023/09/29 03:18:34;;;;;;;20.60;3.43;;;;;;;;;;5105487;28;20228;-70
2023/09/29 03:21:00;;;;;;;8.07;2.47;;;;;;;;;;5091577;28;20224;-69
2023/09/29 03:23:28;;;;;;;3.97;2.30;;;;;;;;;;5100646;28;20199;-70
2023/09/29 03:25:56;;;;;;;4.87;2.70;;;;;;;;;;5111306;28;20206;-70
2023/09/29 03:28:22;;;;;;;5.90;2.97;;;;;;;;;;5103121;28;20197;-70
2023/09/29 03:30:49;;;;;;;4.53;2.20;;;;;;;;;;5094108;28;20686;-69
2023/09/29 03:33:16;;;;;;;7.33;2.73;;;;;;;;;;5112133;28;20211;-69
2023/09/29 03:35:43;;;;;;;6.10;2.57;;;;;;;;;;5095407;28;20287;-70
2023/09/29 03:38:10;;;;;;;8.03;3.20;;;;;;;;;;5091380;28;20204;-70
2023/09/29 03:40:37;;;;;;;7.93;2.70;;;;;;;;;;5099563;28;20307;-70
2023/09/29 03:43:05;;;;;;;3.00;2.33;;;;;;;;;;5098561;28;20204;-70
2023/09/29 03:45:35;;;;;;;4.77;2.20;;;;;;;;;;5098313;28;20287;-70
2023/09/29 03:48:04;;;;;;;3.77;2.53;;;;;;;;;;5103129;28;20192;-70
2023/09/29 03:50:31;;;;;;;3.20;2.23;;;;;;;;;;5104340;28;20200;-70
2023/09/29 03:52:59;;;;;;;5.10;2.30;;;;;;;;;;5110720;28;20199;-73
2023/09/29 03:55:27;;;;;;;5.77;2.23;;;;;;;;;;5110641;28;20207;-70
2023/09/29 03:57:53;;;;;;;5.20;2.43;;;;;;;;;;5109919;28;20238;-70
2023/09/29 04:00:22;;;;;;;7.77;2.40;;;;;;;;;;5108959;28;20219;-70
2023/09/29 04:02:50;;;;;;;8.27;2.97;;;;;;;;;;5109153;28;20202;-70
2023/09/29 04:05:18;;;;;;;5.70;2.50;;;;;;;;;;5107905;28;20200;-70
2023/09/29 04:07:45;;;;;;;9.63;2.33;;;;;;;;;;5100804;28;20203;-70
2023/09/29 04:10:13;;;;;;;12.93;3.03;;;;;;;;;;5104483;28;20226;-72
2023/09/29 04:12:41;;;;;;;3.13;2.83;;;;;;;;;;5097119;28;20279;-74
2023/09/29 04:15:09;;;;;;;5.23;2.67;;;;;;;;;;5108260;28;20208;-73
2023/09/29 04:17:37;;;;;;;9.43;2.67;;;;;;;;;;5089921;28;20212;-73
2023/09/29 04:20:05;;;;;;;10.10;2.50;;;;;;;;;;5098623;28;20273;-74
2023/09/29 04:22:32;;;;;;;10.20;2.90;;;;;;;;;;5100400;28;20215;-74
2023/09/29 04:24:59;;;;;;;10.80;2.53;;;;;;;;;;5108811;28;20211;-73
2023/09/29 04:27:26;;;;;;;6.83;2.87;;;;;;;;;;5100620;28;20680;-74
2023/09/29 04:29:53;;;;;;;4.60;2.13;;;;;;;;;;5110859;28;20196;-74
2023/09/29 04:32:19;;;;;;;3.50;2.87;;;;;;;;;;5109586;28;20207;-74
2023/09/29 04:34:48;;;;;;;6.87;3.90;;;;;;;;;;5108258;28;20203;-74
2023/09/29 04:37:15;;;;;;;5.50;2.30;;;;;;;;;;5088713;28;20195;-74
2023/09/29 04:39:42;;;;;;;4.67;2.53;;;;;;;;;;5100635;28;20203;-74
2023/09/29 04:42:08;;;;;;;7.87;2.60;;;;;;;;;;5091075;28;20207;-74
2023/09/29 04:44:35;;;;;;;3.87;2.73;;;;;;;;;;5090436;28;20601;-74
2023/09/29 04:47:02;;;;;;;3.73;2.80;;;;;;;;;;5090011;28;20206;-74
2023/09/29 04:49:28;;;;;;;6.20;3.10;;;;;;;;;;5090877;28;20693;-74
2023/09/29 04:51:57;;;;;;;11.87;2.83;;;;;;;;;;5090094;28;20666;-74
2023/09/29 04:54:23;;;;;;;6.43;2.17;;;;;;;;;;5090799;28;20204;-74
2023/09/29 04:56:51;;;;;;;4.47;2.30;;;;;;;;;;5090406;28;20204;-74
2023/09/29 04:59:18;;;;;;;5.90;2.80;;;;;;;;;;5090518;28;20667;-74
2023/09/29 05:01:45;;;;;;;5.60;3.00;;;;;;;;;;5089984;28;20262;-74
2023/09/29 05:04:12;;;;;;;11.53;3.00;;;;;;;;;;5104357;28;20261;-74
2023/09/29 05:06:38;;;;;;;10.20;3.20;;;;;;;;;;5098184;28;20203;-74
2023/09/29 05:09:07;;;;;;;6.03;3.00;;;;;;;;;;5096308;28;20670;-74
2023/09/29 05:11:33;;;;;;;9.03;2.80;;;;;;;;;;5090037;28;20689;-74
2023/09/29 05:14:00;;;;;;;5.20;3.27;;;;;;;;;;5090256;28;20200;-74
2023/09/29 05:16:27;;;;;;;6.13;2.57;;;;;;;;;;5099609;28;20210;-74
2023/09/29 05:18:54;;;;;;;3.30;2.83;;;;;;;;;;5096855;28;20208;-74
2023/09/29 05:21:22;;;;;;;5.37;2.83;;;;;;;;;;5091770;28;20314;-74
2023/09/29 05:23:49;;;;;;;4.80;2.83;;;;;;;;;;5090414;28;20207;-74
2023/09/29 05:26:17;;;;;;;4.63;2.70;;;;;;;;;;5108790;28;20207;-74
2023/09/29 05:28:44;;;;;;;4.00;3.07;;;;;;;;;;5110625;28;20610;-73
2023/09/29 05:31:11;;;;;;;9.90;3.07;;;;;;;;;;5090690;28;20744;-74
2023/09/29 05:33:38;;;;;;;8.30;3.50;;;;;;;;;;5090116;28;20208;-74
2023/09/29 05:36:05;;;;;;;13.97;3.53;;;;;;;;;;5090128;28;20208;-74
2023/09/29 05:38:32;;;;;;;8.07;2.90;;;;;;;;;;5090233;28;20207;-74
2023/09/29 05:40:59;;;;;;;7.57;2.83;;;;;;;;;;5097064;28;20234;-74
2023/09/29 05:43:27;;;;;;;7.53;3.83;;;;;;;;;;5097027;28;20694;-74
2023/09/29 05:45:54;;;;;;;6.23;3.63;;;;;;;;;;5089965;28;20197;-73
2023/09/29 05:48:21;;;;;;;5.70;3.17;;;;;;;;;;5090281;28;20266;-74
2023/09/29 05:50:49;;;;;;;6.27;3.70;;;;;;;;;;5093623;28;20219;-74
2023/09/29 05:53:16;;;;;;;10.37;3.77;;;;;;;;;;5106990;28;20207;-74
2023/09/29 05:55:43;;;;;;;10.27;3.40;;;;;;;;;;5093766;28;20670;-74
2023/09/29 05:58:09;;;;;;;6.77;3.47;;;;;;;;;;5093577;28;20200;-74
2023/09/29 06:00:38;;;;;;;6.07;3.60;;;;;;;;;;5093846;28;20232;-74
2023/09/29 06:03:05;;;;;;;6.33;4.17;;;;;;;;;;5095135;28;20207;-74
2023/09/29 06:05:32;;;;;;;6.83;4.17;;;;;;;;;;5113648;28;20628;-74
2023/09/29 06:07:59;;;;;;;9.73;4.23;;;;;;;;;;5097894;28;20204;-73
2023/09/29 06:10:26;;;;;;;6.73;4.57;;;;;;;;;;5093206;28;20590;-74
2023/09/29 06:12:53;;;;;;;11.07;4.80;;;;;;;;;;5106252;28;20235;-73
2023/09/29 06:15:20;;;;;;;8.73;4.53;;;;;;;;;;5093586;28;20204;-74
2023/09/29 06:17:50;;;;;;;6.53;4.90;;;;;;;;;;5093003;28;20594;-73
2023/09/29 06:20:18;;;;;;;7.43;4.57;;;;;;;;;;5093279;28;20291;-73
2023/09/29 06:22:45;;;;;;;7.47;4.70;;;;;;;;;;5095930;28;20204;-73
2023/09/29 06:25:12;;;;;;;14.93;4.87;;;;;;;;;;5113356;28;20258;-73
2023/09/29 06:27:39;;;;;;;5.23;4.53;;;;;;;;;;5109691;28;20207;-74
2023/09/29 06:30:07;;;;;;;7.20;4.60;;;;;;;;;;5103208;28;20225;-74
2023/09/29 06:32:33;;;;;;;6.73;4.23;;;;;;;;;;5099563;28;20633;-74
2023/09/29 06:35:02;;;;;;;8.40;3.83;;;;;;;;;;5113214;28;20195;-74
2023/09/29 06:37:29;;;;;;;4.60;3.20;;;;;;;;;;5094944;28;20192;-73
2023/09/29 06:39:56;;;;;;;9.03;3.80;;;;;;;;;;5092720;28;20201;-73
2023/09/29 06:42:23;;;;;;;5.67;3.20;;;;;;;;;;5092790;28;20228;-73
2023/09/29 06:44:50;;;;;;;7.77;3.17;;;;;;;;;;5092708;28;20214;-74
2023/09/29 06:47:17;;;;;;;4.87;3.00;;;;;;;;;;5111363;28;20419;-73
2023/09/29 06:49:44;;;;;;;7.43;3.67;;;;;;;;;;5112325;28;20616;-74
2023/09/29 06:52:12;;;;;;;8.63;3.33;;;;;;;;;;5107564;28;20211;-73
2023/09/29 06:54:39;;;;;;;10.37;3.33;;;;;;;;;;5092915;28;20207;-73
2023/09/29 06:57:06;;;;;;;5.37;3.40;;;;;;;;;;5098080;28;20192;-73
2023/09/29 06:59:33;;;;;;;9.00;3.27;;;;;;;;;;5099439;28;20264;-74
2023/09/29 07:01:59;;;;;;;4.03;3.30;;;;;;;;;;5098314;28;20300;-73
2023/09/29 07:04:26;;;;;;;4.90;2.67;;;;;;;;;;5112818;28;20731;-73
2023/09/29 07:06:53;;;;;;;6.27;3.47;;;;;;;;;;5106366;28;20204;-74
2023/09/29 07:09:22;;;;;;;7.20;2.63;;;;;;;;;;5105424;28;20195;-74
2023/09/29 07:11:48;;;;;;;10.23;3.80;;;;;;;;;;5092042;28;20609;-73
2023/09/29 07:14:15;;;;;;;6.00;2.83;;;;;;;;;;5105891;28;20590;-74
2023/09/29 07:16:43;;;;;;;4.57;2.77;;;;;;;;;;5091971;28;20253;-73
2023/09/29 07:19:12;;;;;;;10.97;3.50;;;;;;;;;;5091798;28;20684;-74
2023/09/29 07:21:38;;;;;;;7.90;3.03;;;;;;;;;;5091748;28;20232;-74
2023/09/29 07:24:07;;;;;;;8.53;3.20;;;;;;;;;;5105727;28;20256;-73
2023/09/29 07:26:35;;;;;;;4.00;3.13;;;;;;;;;;5092200;28;20203;-74
2023/09/29 07:29:04;;;;;;;5.83;3.10;;;;;;;;;;5091673;28;20200;-74
2023/09/29 07:31:35;;;;;;;8.87;3.30;;;;;;;;;;5091909;28;20212;-73
2023/09/29 07:34:02;;;;;;;5.23;3.20;;;;;;;;;;5105252;28;20701;-74
2023/09/29 07:36:30;;;;;;;7.50;3.07;;;;;;;;;;5102196;28;20233;-74
2023/09/29 07:38:57;;;;;;;7.37;3.20;;;;;;;;;;5108252;28;20674;-74
2023/09/29 07:41:24;;;;;;;9.63;3.70;;;;;;;;;;5102181;28;20665;-73
2023/09/29 07:43:52;;;;;;;6.07;3.17;;;;;;;;;;5094302;28;20196;-74
2023/09/29 07:46:19;;;;;;;3.30;2.53;;;;;;;;;;5102279;28;20200;-74
2023/09/29 07:48:46;;;;;;;7.10;3.13;;;;;;;;;;5093639;28;20578;-73
2023/09/29 07:51:13;;;;;;;6.87;3.37;;;;;;;;;;5102184;28;20209;-74
2023/09/29 07:53:39;;;;;;;4.37;3.37;;;;;;;;;;5093512;28;20204;-74
2023/09/29 07:56:07;;;;;;;7.20;3.20;;;;;;;;;;5091668;28;20571;-73
2023/09/29 07:58:33;;;;;;;7.27;3.40;;;;;;;;;;5096663;28;20229;-74
2023/09/29 08:01:02;;;;;;;11.13;3.50;;;;;;;;;;5111574;28;20628;-73
2023/09/29 08:03:29;;;;;;;7.73;3.07;;;;;;;;;;5111671;28;20758;-74
2023/09/29 08:05:55;;;;;;;6.50;3.80;;;;;;;;;;5111645;28;20210;-74
2023/09/29 08:08:24;;;;;;;6.67;3.30;;;;;;;;;;5091518;28;20196;-74
2023/09/29 08:10:51;;;;;;;9.50;3.47;;;;;;;;;;5104280;28;20286;-74
2023/09/29 08:13:18;;;;;;;16.57;3.47;;;;;;;;;;5097865;28;20272;-74
2023/09/29 08:15:46;;;;;;;9.23;3.90;;;;;;;;;;5097837;28;20560;-75
2023/09/29 08:18:14;;;;;;;11.73;4.07;;;;;;;;;;5098506;28;20196;-74
2023/09/29 08:20:42;;;;;;;4.47;3.77;;;;;;;;;;5097217;28;20204;-74
2023/09/29 08:23:08;;;;;;;5.43;3.30;;;;;;;;;;5090403;28;20314;-74
2023/09/29 08:25:35;;;;;;;6.33;4.17;;;;;;;;;;5090818;28;20215;-74
2023/09/29 08:28:02;;;;;;;4.57;3.50;;;;;;;;;;5097770;28;20203;-74
2023/09/29 08:30:29;;;;;;;6.63;4.00;;;;;;;;;;5096941;28;20595;-74
2023/09/29 08:32:56;;;;;;;8.40;3.77;;;;;;;;;;5090859;28;20200;-74
2023/09/29 08:35:27;;;;;;;7.73;4.13;;;;;;;;;;5091279;28;20557;-74
2023/09/29 08:37:54;;;;;;;9.30;4.03;;;;;;;;;;5110578;28;20286;-74
2023/09/29 08:40:20;;;;;;;13.07;3.63;;;;;;;;;;5097618;28;20282;-74
2023/09/29 08:42:49;;;;;;;3.77;3.37;;;;;;;;;;5102806;28;20224;-74
2023/09/29 08:45:17;;;;;;;5.63;3.43;;;;;;;;;;5104518;28;20207;-74
2023/09/29 08:47:48;;;;;;;6.63;4.00;;;;;;;;;;5099182;28;20292;-74
2023/09/29 08:50:17;;;;;;;8.17;3.97;;;;;;;;;;5094677;28;20261;-72
2023/09/29 08:52:46;;;;;;;7.57;4.00;;;;;;;;;;5101106;28;20200;-73
2023/09/29 08:55:13;;;;;;;6.80;4.27;;;;;;;;;;5093364;28;20227;-73
2023/09/29 08:57:42;;;;;;;8.90;4.20;;;;;;;;;;5090343;28;20742;-73
2023/09/29 09:00:12;;;;;;;6.87;4.10;;;;;;;;;;5090550;28;20287;-72
2023/09/29 09:02:41;;;;;;;5.50;3.90;;;;;;;;;;5090317;28;20721;-73
2023/09/29 09:05:10;;;;;;;7.47;3.87;;;;;;;;;;5104180;28;20210;-73
2023/09/29 09:07:39;;;;;;;9.77;4.30;;;;;;;;;;5090612;28;20200;-73
2023/09/29 09:10:09;;;;;;;12.57;4.53;;;;;;;;;;5090348;28;20201;-73
2023/09/29 09:12:36;;;;;;;12.70;3.83;;;;;;;;;;5104243;28;20235;-73
2023/09/29 09:15:04;;;;;;;11.27;4.27;;;;;;;;;;5097907;28;20192;-73
2023/09/29 09:17:31;;;;;;;4.93;3.93;;;;;;;;;;5109882;28;20200;-72
2023/09/29 09:19:58;;;;;;;7.50;4.10;;;;;;;;;;5091544;28;20212;-73
2023/09/29 09:22:27;;;;;;;7.60;4.23;;;;;;;;;;5090741;28;20277;-73
2023/09/29 09:24:58;;;;;;;6.00;3.33;;;;;;;;;;5094625;28;20232;-72
2023/09/29 09:27:26;;;;;;;7.10;4.73;;;;;;;;;;5095838;28;20283;-73
2023/09/29 09:29:53;;;;;;;13.37;7.93;;;;;;;;;;5105549;28;20234;-73
2023/09/29 09:32:26;;;;;;;11.60;4.50;;;;;;;;;;5094220;28;20204;-73
2023/09/29 09:34:53;;;;;;;7.83;5.50;;;;;;;;;;5104578;28;20286;-73
2023/09/29 09:37:25;;;;;;;5.80;4.40;;;;;;;;;;5096191;28;20279;-73
2023/09/29 09:39:53;;;;;;;4.53;3.40;;;;;;;;;;5094221;28;20204;-73
2023/09/29 09:42:21;;;;;;;7.43;3.87;;;;;;;;;;5112692;28;20221;-73
2023/09/29 09:44:49;;;;;;;7.63;3.63;;;;;;;;;;5101875;28;20200;-73
2023/09/29 09:47:17;;;;;;;7.23;3.40;;;;;;;;;;5093432;28;20355;-73
2023/09/29 09:49:47;;;;;;;6.80;3.83;;;;;;;;;;5093839;28;20232;-73
2023/09/29 09:52:20;;;;;;;6.30;3.67;;;;;;;;;;5113685;28;20208;-73
2023/09/29 09:54:49;;;;;;;6.17;3.23;;;;;;;;;;5113151;28;20199;-73
2023/09/29 09:57:20;;;;;;;8.23;3.67;;;;;;;;;;5093796;28;20200;-73
2023/09/29 09:59:49;;;;;;;3.30;3.00;;;;;;;;;;5106938;28;20666;-72
2023/09/29 10:02:16;;;;;;;4.00;3.27;;;;;;;;;;5102574;28;20223;-73
2023/09/29 10:04:44;;;;;;;9.00;3.23;;;;;;;;;;5100103;28;20702;-73
2023/09/29 10:07:11;;;;;;;6.37;3.17;;;;;;;;;;5104546;28;20200;-73
2023/09/29 10:09:43;;;;;;;5.10;3.33;;;;;;;;;;5107338;28;20227;-73
2023/09/29 10:12:26;;;;;;;9.03;3.90;;;;;;;;;;5093503;28;20293;-74
2023/09/29 10:14:55;;;;;;;5.87;2.93;;;;;;;;;;5090809;28;20200;-73
2023/09/29 10:17:22;;;;;;;7.47;3.47;;;;;;;;;;5093119;28;20678;-73
2023/09/29 10:19:54;;;;;;;3.73;3.37;;;;;;;;;;5093234;28;20289;-73
2023/09/29 10:22:25;;;;;;;6.13;3.10;;;;;;;;;;5093480;28;20309;-73
2023/09/29 10:24:56;;;;;;;4.43;3.50;;;;;;;;;;5092986;28;20231;-72
2023/09/29 10:27:30;;;;;;;7.07;4.03;;;;;;;;;;5094023;28;20200;-73
2023/09/29 10:30:13;;;;;;;8.60;3.33;;;;;;;;;;5104772;28;20724;-73
2023/09/29 10:32:40;;;;;;;5.30;3.83;;;;;;;;;;5096977;28;20195;-73
2023/09/29 10:35:15;;;;;;;7.80;3.20;;;;;;;;;;5101160;28;20232;-72
2023/09/29 10:37:43;;;;;;;3.73;3.00;;;;;;;;;;5098883;28;20290;-73
2023/09/29 10:40:20;;;;;;;7.93;6.90;;;;;;;;;;5112808;28;20697;-73
2023/09/29 10:42:48;;;;;;;6.23;4.83;;;;;;;;;;5092482;28;20678;-73
2023/09/29 10:45:25;;;;;;;8.53;5.13;;;;;;;;;;5092996;28;20204;-73
2023/09/29 10:47:53;;;;;;;7.03;3.43;;;;;;;;;;5092421;28;20287;-73
2023/09/29 10:50:20;;;;;;;5.03;3.33;;;;;;;;;;5096156;28;20278;-73
2023/09/29 10:52:47;;;;;;;8.73;3.80;;;;;;;;;;5112846;28;20200;-73
2023/09/29 10:55:14;;;;;;;5.40;3.07;;;;;;;;;;5108347;28;20258;-74
2023/09/29 10:57:42;;;;;;;6.67;2.97;;;;;;;;;;5092185;28;20205;-73
2023/09/29 11:00:11;;;;;;;2.93;2.67;;;;;;;;;;5092508;28;20200;-73
2023/09/29 11:02:39;;;;;;;9.73;2.90;;;;;;;;;;5092567;28;20625;-73
2023/09/29 11:05:12;;;;;;;5.40;2.93;;;;;;;;;;5105894;28;20197;-73
2023/09/29 11:07:46;;;;;;;6.63;3.30;;;;;;;;;;5092779;28;20200;-72
2023/09/29 11:10:15;;;;;;;8.47;3.37;;;;;;;;;;5092366;28;20200;-73
2023/09/29 11:12:46;;;;;;;5.33;3.03;;;;;;;;;;5105824;28;20231;-73
2023/09/29 11:15:13;;;;;;;8.43;3.83;;;;;;;;;;5092148;28;20208;-73
2023/09/29 11:17:49;;;;;;;4.80;3.00;;;;;;;;;;5091557;28;20663;-72
2023/09/29 11:20:25;;;;;;;10.73;3.63;;;;;;;;;;5092413;28;20196;-73
2023/09/29 11:23:01;;;;;;;5.97;2.90;;;;;;;;;;5091610;28;20225;-73
2023/09/29 11:25:29;;;;;;;6.93;3.13;;;;;;;;;;5092322;28;20251;-73
2023/09/29 11:27:56;;;;;;;9.03;3.00;;;;;;;;;;5097337;28;20195;-72
2023/09/29 11:30:24;;;;;;;4.43;2.90;;;;;;;;;;5112312;28;20199;-73
2023/09/29 11:32:53;;;;;;;8.60;2.83;;;;;;;;;;5111854;28;20200;-73
2023/09/29 11:35:21;;;;;;;6.10;2.70;;;;;;;;;;5111471;28;20689;-73
2023/09/29 11:37:48;;;;;;;6.73;3.40;;;;;;;;;;5104512;28;20250;-72
2023/09/29 11:40:16;;;;;;;12.17;3.47;;;;;;;;;;5091792;28;20200;-74
2023/09/29 11:42:45;;;;;;;7.17;3.23;;;;;;;;;;5099163;28;20697;-73
2023/09/29 11:45:12;;;;;;;8.60;3.30;;;;;;;;;;5096725;28;20597;-73
2023/09/29 11:47:39;;;;;;;6.93;3.47;;;;;;;;;;5099706;28;20208;-73
2023/09/29 11:50:09;;;;;;;7.43;3.25;;;;;;;;;;5110392;28;20596;-72
2023/09/29 11:52:39;;;;;;;5.07;2.93;;;;;;;;;;5100148;28;20204;-72
2023/09/29 11:55:08;;;;;;;9.40;2.57;;;;;;;;;;5109183;28;20207;-73
2023/09/29 11:57:37;;;;;;;4.05;3.33;;;;;;;;;;5091384;28;20196;-73
2023/09/29 12:00:08;;;;;;;5.23;3.37;;;;;;;;;;5107877;28;20195;-73
2023/09/29 12:02:35;;;;;;;7.53;3.83;;;;;;;;;;5100484;28;20752;-73
2023/09/29 12:05:02;;;;;;;5.97;3.57;;;;;;;;;;5104435;28;20209;-73
2023/09/29 12:07:31;;;;;;;6.33;3.67;;;;;;;;;;5102227;28;20210;-73
2023/09/29 12:09:58;;;;;;;6.03;3.80;;;;;;;;;;5111842;28;20192;-73
2023/09/29 12:12:25;;;;;;;7.73;3.63;;;;;;;;;;5110919;28;20659;-72
2023/09/29 12:14:52;;;;;;;6.63;3.17;;;;;;;;;;5105874;28;20196;-73
2023/09/29 12:17:20;;;;;;;16.50;4.07;;;;;;;;;;5090958;28;20208;-73
2023/09/29 12:19:47;;;;;;;6.03;3.37;;;;;;;;;;5104442;28;20265;-72
2023/09/29 12:22:14;;;;;;;8.33;2.90;;;;;;;;;;5102949;28;20286;-73
2023/09/29 12:24:42;;;;;;;5.80;3.60;;;;;;;;;;5092236;28;20204;-73
2023/09/29 12:27:09;;;;;;;4.67;2.97;;;;;;;;;;5091312;28;20200;-73
2023/09/29 12:29:36;;;;;;;4.63;3.28;;;;;;;;;;5090894;28;20207;-73
2023/09/29 12:32:03;;;;;;;9.90;3.28;;;;;;;;;;5090606;28;20724;-72
2023/09/29 12:34:32;;;;;;;5.45;3.50;;;;;;;;;;5090648;28;20253;-73
2023/09/29 12:36:59;;;;;;;3.87;3.03;;;;;;;;;;5090548;28;20253;-72
2023/09/29 12:39:26;;;;;;;8.77;3.30;;;;;;;;;;5091187;28;20287;-73
2023/09/29 12:41:55;;;;;;;6.00;3.35;;;;;;;;;;5104965;28;20575;-73
2023/09/29 12:44:22;;;;;;;4.20;3.47;;;;;;;;;;5102462;28;20228;-73
2023/09/29 12:46:49;;;;;;;8.73;3.50;;;;;;;;;;5104096;28;20206;-73
2023/09/29 12:49:16;;;;;;;7.30;3.97;;;;;;;;;;5099219;28;20206;-73
2023/09/29 12:51:43;;;;;;;6.73;3.93;;;;;;;;;;5096595;28;20746;-73
2023/09/29 12:54:10;;;;;;;6.80;3.47;;;;;;;;;;5102594;28;20201;-73
2023/09/29 12:56:37;;;;;;;5.47;3.93;;;;;;;;;;5090352;28;20200;-73
2023/09/29 12:59:06;;;;;;;7.17;3.63;;;;;;;;;;5094060;28;20210;-73
2023/09/29 13:01:33;;;;;;;3.60;2.83;;;;;;;;;;5094619;28;20596;-73
2023/09/29 13:04:00;;;;;;;5.80;4.20;;;;;;;;;;5094845;28;20220;-73
2023/09/29 13:06:27;;;;;;;10.50;3.43;;;;;;;;;;5094448;28;20269;-72
2023/09/29 13:08:54;;;;;;;6.03;3.50;;;;;;;;;;5094718;28;20654;-73
2023/09/29 13:11:21;;;;;;;7.20;4.93;;;;;;;;;;5094033;28;20204;-73
2023/09/29 13:13:48;;;;;;;4.30;3.47;;;;;;;;;;5104871;28;20208;-73
2023/09/29 13:16:16;;;;;;;8.25;4.43;;;;;;;;;;5114341;28;20207;-74
2023/09/29 13:18:43;;;;;;;10.77;3.80;;;;;;;;;;5103880;28;20215;-73
2023/09/29 13:21:10;;;;;;;5.13;3.60;;;;;;;;;;5097488;28;20745;-72
2023/09/29 13:23:39;;;;;;;8.50;4.03;;;;;;;;;;5103774;28;20248;-73
2023/09/29 13:26:06;;;;;;;12.77;4.40;;;;;;;;;;5107607;28;20736;-73
2023/09/29 13:28:33;;;;;;;6.53;3.50;;;;;;;;;;5094400;28;20265;-73
2023/09/29 13:31:01;;;;;;;7.57;3.70;;;;;;;;;;5107755;28;20196;-73
2023/09/29 13:33:30;;;;;;;8.60;4.07;;;;;;;;;;5105461;28;20195;-72
2023/09/29 13:35:56;;;;;;;9.80;4.93;;;;;;;;;;5095429;28;20197;-73
2023/09/29 13:38:23;;;;;;;7.73;4.00;;;;;;;;;;5093986;28;20219;-73
2023/09/29 13:40:53;;;;;;;7.05;3.95;;;;;;;;;;5107839;28;20200;-73
2023/09/29 13:43:20;;;;;;;11.23;4.30;;;;;;;;;;5093463;28;20235;-73
2023/09/29 13:45:47;;;;;;;7.78;4.47;;;;;;;;;;5094140;28;20265;-73
2023/09/29 13:48:14;;;;;;;7.40;4.47;;;;;;;;;;5093719;28;20205;-73
2023/09/29 13:50:44;;;;;;;7.85;4.03;;;;;;;;;;5094293;28;20201;-73
2023/09/29 13:53:11;;;;;;;9.38;4.75;;;;;;;;;;5106778;28;20239;-73
2023/09/29 13:55:37;;;;;;;6.18;4.00;;;;;;;;;;5093874;28;20219;-73
2023/09/29 13:58:05;;;;;;;9.63;4.20;;;;;;;;;;5107583;28;20206;-73
2023/09/29 14:00:31;;;;;;;12.77;4.85;;;;;;;;;;5093287;28;20262;-73
2023/09/29 14:02:58;;;;;;;11.87;4.87;;;;;;;;;;5107519;28;20219;-73
2023/09/29 14:05:26;;;;;;;12.27;4.93;;;;;;;;;;5101799;28;20200;-73
2023/09/29 14:07:55;;;;;;;7.53;4.90;;;;;;;;;;5106547;28;20203;-73
2023/09/29 14:10:22;;;;;;;12.37;4.10;;;;;;;;;;5112594;28;20234;-73
2023/09/29 14:12:49;;;;;;;9.70;4.53;;;;;;;;;;5113624;28;20228;-73
2023/09/29 14:15:15;;;;;;;11.23;4.45;;;;;;;;;;5112552;28;20299;-73
2023/09/29 14:17:44;;;;;;;6.97;4.32;;;;;;;;;;5112613;28;20207;-73
2023/09/29 14:20:13;;;;;;;10.65;4.72;;;;;;;;;;5104347;28;20204;-73
2023/09/29 14:22:40;;;;;;;7.13;4.80;;;;;;;;;;5100840;28;20284;-74
2023/09/29 14:25:08;;;;;;;13.67;4.87;;;;;;;;;;5088803;28;20219;-73
2023/09/29 14:27:36;;;;;;;5.87;4.33;;;;;;;;;;5092946;28;20207;-74
2023/09/29 14:30:06;;;;;;;10.23;5.10;;;;;;;;;;5092609;28;20683;-73
2023/09/29 14:32:32;;;;;;;9.37;4.60;;;;;;;;;;5105706;28;20283;-71
2023/09/29 14:35:00;;;;;;;9.30;4.43;;;;;;;;;;5106388;28;20670;-71
2023/09/29 14:37:27;;;;;;;9.70;4.83;;;;;;;;;;5092603;28;20747;-71
2023/09/29 14:39:55;;;;;;;7.77;4.93;;;;;;;;;;5105831;28;20204;-71
2023/09/29 14:42:23;;;;;;;16.17;5.30;;;;;;;;;;5092480;28;20200;-71
2023/09/29 14:44:50;;;;;;;10.30;4.13;;;;;;;;;;5094790;28;20231;-71